createdAt,value
2022-10-21T00:00:58.909Z,100793.00
2022-10-21T00:03:27.210Z,100792.47
2022-10-21T00:05:55.611Z,100784.66
2022-10-21T00:08:23.737Z,100783.78
2022-10-21T00:10:57.452Z,100791.00
2022-10-21T00:13:26.449Z,100783.72
2022-10-21T00:16:15.867Z,100785.44
2022-10-21T00:18:44.836Z,100782.47
2022-10-21T00:21:18.103Z,100781.41
2022-10-21T00:23:46.109Z,100779.81
2022-10-21T00:26:14.762Z,100769.31
2022-10-21T00:28:42.915Z,100772.66
2022-10-21T00:31:11.825Z,100764.47
2022-10-21T00:33:39.516Z,100764.81
2022-10-21T00:36:07.921Z,100766.88
2022-10-21T00:38:36.065Z,100755.97
2022-10-21T00:41:03.728Z,100750.09
2022-10-21T00:43:31.078Z,100746.00
2022-10-21T00:46:02.218Z,100746.84
2022-10-21T00:48:34.512Z,100749.13
2022-10-21T00:51:11.972Z,100758.47
2022-10-21T00:53:42.239Z,100751.06
2022-10-21T00:56:16.548Z,100749.88
2022-10-21T00:58:46.642Z,100747.50
2022-10-21T01:01:17.887Z,100741.75
2022-10-21T01:03:49.627Z,100739.63
2022-10-21T01:06:20.553Z,100742.13
2022-10-21T01:08:48.417Z,100734.69
2022-10-21T01:11:18.392Z,100720.44
2022-10-21T01:14:05.001Z,100726.97
2022-10-21T01:16:47.353Z,100732.31
2022-10-21T01:19:27.390Z,100726.75
2022-10-21T01:22:08.922Z,100734.34
2022-10-21T01:24:54.905Z,100722.91
2022-10-21T01:27:25.459Z,100732.97
2022-10-21T01:30:07.904Z,100729.63
2022-10-21T01:32:35.418Z,100728.66
2022-10-21T01:35:11.750Z,100724.72
2022-10-21T01:37:44.863Z,100716.09
2022-10-21T01:40:20.098Z,100713.03
2022-10-21T01:42:59.565Z,100700.41
2022-10-21T01:45:30.082Z,100698.56
2022-10-21T01:48:06.172Z,100682.47
2022-10-21T01:50:38.164Z,100698.19
2022-10-21T01:53:10.159Z,100694.69
2022-10-21T01:55:38.291Z,100693.97
2022-10-21T01:58:09.186Z,100700.81
2022-10-21T02:00:37.501Z,100704.44
2022-10-21T02:03:08.914Z,100714.34
2022-10-21T02:05:36.408Z,100693.63
2022-10-21T02:08:04.033Z,100702.41
2022-10-21T02:10:39.573Z,100697.44
2022-10-21T02:13:10.297Z,100700.44
2022-10-21T02:15:38.648Z,100697.63
2022-10-21T02:18:16.969Z,100706.28
2022-10-21T02:20:44.845Z,100723.75
2022-10-21T02:23:15.957Z,100713.53
2022-10-21T02:25:45.199Z,100713.03
2022-10-21T02:28:13.268Z,100700.50
2022-10-21T02:31:02.707Z,100705.84
2022-10-21T02:34:03.742Z,100707.69
2022-10-21T02:36:38.048Z,100720.47
2022-10-21T02:39:32.657Z,100724.03
2022-10-21T02:42:01.997Z,100709.50
2022-10-21T02:44:29.637Z,100693.38
2022-10-21T02:46:57.034Z,100691.53
2022-10-21T02:49:24.446Z,100688.22
2022-10-21T02:51:52.139Z,100704.59
2022-10-21T02:54:19.514Z,100695.50
2022-10-21T02:56:46.957Z,100692.38
2022-10-21T02:59:14.545Z,100695.72
2022-10-21T03:01:41.925Z,100708.44
2022-10-21T03:04:09.274Z,100707.03
2022-10-21T03:06:36.883Z,100710.66
2022-10-21T03:09:05.489Z,100715.03
2022-10-21T03:11:32.928Z,100722.47
2022-10-21T03:14:00.519Z,100718.06
2022-10-21T03:16:27.870Z,100705.25
2022-10-21T03:18:55.220Z,100701.91
2022-10-21T03:21:22.841Z,100702.16
2022-10-21T03:23:50.150Z,100705.56
2022-10-21T03:26:17.495Z,100704.75
2022-10-21T03:28:45.094Z,100699.69
2022-10-21T03:31:12.420Z,100685.06
2022-10-21T03:33:39.809Z,100674.81
2022-10-21T03:36:07.558Z,100673.81
2022-10-21T03:38:35.017Z,100677.34
2022-10-21T03:41:02.333Z,100685.16
2022-10-21T03:43:29.948Z,100676.34
2022-10-21T03:45:57.356Z,100682.97
2022-10-21T03:48:24.699Z,100676.88
2022-10-21T03:50:52.319Z,100664.44
2022-10-21T03:53:38.310Z,100665.75
2022-10-21T03:56:07.502Z,100671.78
2022-10-21T03:58:35.760Z,100662.94
2022-10-21T04:01:03.801Z,100657.59
2022-10-21T04:03:31.459Z,100655.84
2022-10-21T04:05:58.808Z,100657.69
2022-10-21T04:08:26.137Z,100650.78
2022-10-21T04:13:26.053Z,100638.25
2022-10-21T04:16:05.828Z,100644.84
2022-10-21T04:18:33.250Z,100644.72
2022-10-21T04:21:00.847Z,100641.03
2022-10-21T04:23:28.230Z,100642.53
2022-10-21T04:25:55.569Z,100644.75
2022-10-21T04:28:23.160Z,100657.91
2022-10-21T04:30:50.873Z,100646.97
2022-10-21T04:33:18.422Z,100641.38
2022-10-21T04:35:46.053Z,100640.50
2022-10-21T04:38:13.568Z,100622.16
2022-10-21T04:40:41.977Z,100610.03
2022-10-21T04:43:09.598Z,100617.44
2022-10-21T04:45:40.474Z,100624.38
2022-10-21T04:48:07.801Z,100609.84
2022-10-21T04:50:35.429Z,100613.37
2022-10-21T04:53:02.800Z,100604.19
2022-10-21T04:55:30.179Z,100604.69
2022-10-21T04:57:57.845Z,100608.12
2022-10-21T05:00:25.198Z,100607.13
2022-10-21T05:02:52.540Z,100609.78
2022-10-21T05:05:20.162Z,100607.13
2022-10-21T05:07:47.512Z,100609.53
2022-10-21T05:10:14.860Z,100619.28
2022-10-21T05:12:42.507Z,100605.97
2022-10-21T05:15:10.179Z,100608.38
2022-10-21T05:17:37.948Z,100602.66
2022-10-21T05:20:06.927Z,100606.47
2022-10-21T05:22:34.266Z,100605.12
2022-10-21T05:25:01.610Z,100604.16
2022-10-21T05:27:29.233Z,100609.56
2022-10-21T05:29:58.353Z,100611.41
2022-10-21T05:32:25.774Z,100608.66
2022-10-21T05:34:53.399Z,100615.28
2022-10-21T05:37:20.765Z,100617.00
2022-10-21T05:39:48.207Z,100616.78
2022-10-21T05:42:15.906Z,100622.94
2022-10-21T05:44:43.220Z,100615.44
2022-10-21T05:47:10.550Z,100601.84
2022-10-21T05:49:38.198Z,100596.81
2022-10-21T05:52:05.568Z,100584.25
2022-10-21T05:54:32.966Z,100586.19
2022-10-21T05:57:00.553Z,100596.00
2022-10-21T05:59:27.944Z,100610.66
2022-10-21T06:01:55.290Z,100628.28
2022-10-21T06:04:22.951Z,100640.50
2022-10-21T06:06:50.302Z,100637.03
2022-10-21T06:09:17.895Z,100644.09
2022-10-21T06:11:45.533Z,100655.66
2022-10-21T06:14:12.849Z,100650.25
2022-10-21T06:16:40.183Z,100658.53
2022-10-21T06:19:07.982Z,100657.19
2022-10-21T06:21:35.376Z,100653.91
2022-10-21T06:24:02.810Z,100646.47
2022-10-21T06:26:33.279Z,100647.69
2022-10-21T06:29:03.454Z,100659.88
2022-10-21T06:31:31.061Z,100655.72
2022-10-21T06:33:58.435Z,100674.87
2022-10-21T06:36:25.798Z,100680.16
2022-10-21T06:38:53.927Z,100666.75
2022-10-21T06:41:21.289Z,100662.66
2022-10-21T06:43:48.683Z,100647.37
2022-10-21T06:46:16.704Z,100652.34
2022-10-21T06:48:44.085Z,100648.19
2022-10-21T06:51:19.415Z,100647.97
2022-10-21T06:53:47.814Z,100641.91
2022-10-21T06:56:17.281Z,100636.94
2022-10-21T06:58:49.249Z,100635.12
2022-10-21T07:01:34.898Z,100634.84
2022-10-21T07:04:09.950Z,100644.41
2022-10-21T07:06:38.081Z,100642.81
2022-10-21T07:09:06.680Z,100640.13
2022-10-21T07:11:34.136Z,100637.53
2022-10-21T07:14:01.983Z,100640.81
2022-10-21T07:16:32.160Z,100636.13
2022-10-21T07:18:59.714Z,100637.41
2022-10-21T07:21:29.996Z,100638.56
2022-10-21T07:23:59.268Z,100643.78
2022-10-21T07:26:29.711Z,100641.50
2022-10-21T07:28:58.874Z,100644.25
2022-10-21T07:31:27.695Z,100658.81
2022-10-21T07:33:56.064Z,100660.50
2022-10-21T07:36:25.968Z,100662.62
2022-10-21T07:38:55.095Z,100667.31
2022-10-21T07:41:28.734Z,100663.94
2022-10-21T07:43:56.129Z,100653.75
2022-10-21T07:46:24.166Z,100639.44
2022-10-21T07:48:51.974Z,100635.91
2022-10-21T07:51:22.386Z,100634.13
2022-10-21T07:53:54.076Z,100633.97
2022-10-21T07:56:23.940Z,100629.66
2022-10-21T07:58:52.214Z,100622.25
2022-10-21T08:01:20.566Z,100625.84
2022-10-21T08:03:48.622Z,100610.66
2022-10-21T08:06:17.448Z,100595.94
2022-10-21T08:08:45.392Z,100593.69
2022-10-21T08:11:21.909Z,100602.13
2022-10-21T08:13:49.278Z,100612.59
2022-10-21T08:16:16.904Z,100594.78
2022-10-21T08:18:44.288Z,100601.34
2022-10-21T08:21:11.707Z,100593.88
2022-10-21T08:23:39.586Z,100592.94
2022-10-21T08:26:10.004Z,100595.41
2022-10-21T08:28:37.347Z,100586.22
2022-10-21T08:31:14.820Z,100597.69
2022-10-21T08:33:42.708Z,100595.25
2022-10-21T08:36:18.581Z,100592.59
2022-10-21T08:38:46.146Z,100587.16
2022-10-21T08:41:30.758Z,100581.53
2022-10-21T08:44:09.511Z,100570.00
2022-10-21T08:46:45.335Z,100564.41
2022-10-21T08:49:17.678Z,100560.69
2022-10-21T08:51:50.780Z,100559.22
2022-10-21T08:54:26.006Z,100557.28
2022-10-21T08:56:59.084Z,100563.09
2022-10-21T08:59:26.862Z,100549.53
2022-10-21T09:02:03.666Z,100539.69
2022-10-21T09:04:46.813Z,100538.56
2022-10-21T09:07:36.657Z,100540.62
2022-10-21T09:10:17.482Z,100537.47
2022-10-21T09:13:15.751Z,100541.84
2022-10-21T09:16:01.436Z,100532.13
2022-10-21T09:18:38.062Z,100530.16
2022-10-21T09:21:17.784Z,100529.41
2022-10-21T09:23:58.983Z,100522.72
2022-10-21T09:26:41.571Z,100525.66
2022-10-21T09:29:15.248Z,100521.25
2022-10-21T09:31:43.926Z,100524.69
2022-10-21T09:34:40.843Z,100514.50
2022-10-21T09:37:15.874Z,100500.25
2022-10-21T09:39:47.595Z,100505.16
2022-10-21T09:42:35.236Z,100499.38
2022-10-21T09:45:02.566Z,100492.88
2022-10-21T09:47:29.988Z,100489.22
2022-10-21T09:50:07.688Z,100489.06
2022-10-21T09:52:36.483Z,100497.87
2022-10-21T09:55:04.320Z,100480.09
2022-10-21T09:57:42.580Z,100477.03
2022-10-21T10:00:13.647Z,100479.16
2022-10-21T10:02:44.478Z,100476.19
2022-10-21T10:05:49.251Z,100475.84
2022-10-21T10:08:22.347Z,100466.72
2022-10-21T10:10:49.727Z,100465.88
2022-10-21T10:13:20.042Z,100458.66
2022-10-21T10:15:47.481Z,100458.16
2022-10-21T10:18:22.544Z,100455.41
2022-10-21T10:21:10.684Z,100439.56
2022-10-21T10:23:54.367Z,100434.34
2022-10-21T10:26:26.545Z,100435.12
2022-10-21T10:28:57.288Z,100439.56
2022-10-21T10:31:31.209Z,100441.13
2022-10-21T10:34:08.712Z,100436.22
2022-10-21T10:36:40.257Z,100428.22
2022-10-21T10:39:28.616Z,100423.16
2022-10-21T10:41:56.620Z,100418.78
2022-10-21T10:44:40.045Z,100407.34
2022-10-21T10:47:16.746Z,100396.94
2022-10-21T10:49:44.208Z,100397.41
2022-10-21T10:52:11.694Z,100399.09
2022-10-21T10:54:40.653Z,100396.03
2022-10-21T10:57:33.956Z,100386.47
2022-10-21T11:00:18.644Z,100375.63
2022-10-21T11:03:03.952Z,100365.38
2022-10-21T11:05:37.799Z,100361.50
2022-10-21T11:08:17.875Z,100367.25
2022-10-21T11:10:47.466Z,100373.19
2022-10-21T11:13:17.956Z,100369.91
2022-10-21T11:16:19.771Z,100364.03
2022-10-21T11:19:17.022Z,100367.25
2022-10-21T11:21:46.975Z,100350.09
2022-10-21T11:24:27.580Z,100355.28
2022-10-21T11:27:46.126Z,100343.09
2022-10-21T11:30:19.783Z,100343.88
2022-10-21T11:33:03.740Z,100333.78
2022-10-21T11:36:16.191Z,100326.91
2022-10-21T11:38:50.047Z,100324.81
2022-10-21T11:41:28.074Z,100308.97
2022-10-21T11:43:58.218Z,100309.91
2022-10-21T11:46:34.355Z,100311.22
2022-10-21T11:49:24.643Z,100308.53
2022-10-21T11:52:07.190Z,100307.06
2022-10-21T11:55:00.908Z,100300.03
2022-10-21T11:57:55.952Z,100301.81
2022-10-21T12:00:25.913Z,100289.38
2022-10-21T12:02:56.520Z,100273.34
2022-10-21T12:05:37.005Z,100279.25
2022-10-21T12:08:08.811Z,100282.38
2022-10-21T12:10:42.459Z,100288.84
2022-10-21T12:13:29.816Z,100279.00
2022-10-21T12:16:02.663Z,100272.22
2022-10-21T12:18:30.705Z,100267.34
2022-10-21T12:20:58.784Z,100275.81
2022-10-21T12:23:29.332Z,100277.78
2022-10-21T12:26:06.977Z,100273.16
2022-10-21T12:28:41.325Z,100264.84
2022-10-21T12:31:37.473Z,100261.28
2022-10-21T12:34:05.962Z,100266.75
2022-10-21T12:36:51.690Z,100257.09
2022-10-21T12:39:34.030Z,100250.34
2022-10-21T12:42:06.400Z,100251.28
2022-10-21T12:44:34.053Z,100253.56
2022-10-21T12:47:03.744Z,100250.75
2022-10-21T12:49:33.613Z,100249.81
2022-10-21T12:52:20.978Z,100241.25
2022-10-21T12:55:04.963Z,100242.22
2022-10-21T12:57:37.716Z,100231.66
2022-10-21T13:02:56.188Z,100229.31
2022-10-21T13:05:39.146Z,100235.62
2022-10-21T13:08:24.407Z,100230.84
2022-10-21T13:11:04.541Z,100238.97
2022-10-21T13:13:44.522Z,100234.13
2022-10-21T13:16:18.332Z,100229.78
2022-10-21T13:19:06.253Z,100223.00
2022-10-21T13:21:38.312Z,100217.50
2022-10-21T13:24:26.636Z,100212.44
2022-10-21T13:27:02.992Z,100210.09
2022-10-21T13:29:36.523Z,100202.81
2022-10-21T13:32:19.488Z,100203.88
2022-10-21T13:34:59.083Z,100210.06
2022-10-21T13:37:30.922Z,100206.81
2022-10-21T13:40:01.432Z,100199.28
2022-10-21T13:42:40.490Z,100190.84
2022-10-21T13:45:35.977Z,100192.94
2022-10-21T13:48:03.516Z,100192.94
2022-10-21T13:50:33.704Z,100196.41
2022-10-21T13:53:14.887Z,100189.41
2022-10-21T13:55:42.566Z,100191.19
2022-10-21T13:58:16.270Z,100180.50
2022-10-21T14:00:44.141Z,100177.84
2022-10-21T14:03:17.963Z,100180.13
2022-10-21T14:06:00.627Z,100168.28
2022-10-21T14:08:34.173Z,100170.75
2022-10-21T14:11:32.199Z,100171.06
2022-10-21T14:14:06.979Z,100167.16
2022-10-21T14:16:43.424Z,100162.75
2022-10-21T14:19:20.081Z,100149.50
2022-10-21T14:21:52.350Z,100158.41
2022-10-21T14:24:29.104Z,100159.63
2022-10-21T14:26:57.316Z,100156.00
2022-10-21T14:29:28.368Z,100152.37
2022-10-21T14:31:56.977Z,100158.47
2022-10-21T14:34:26.651Z,100155.66
2022-10-21T14:37:11.169Z,100155.84
2022-10-21T14:39:39.934Z,100155.34
2022-10-21T14:42:19.769Z,100148.84
2022-10-21T14:44:49.167Z,100145.87
2022-10-21T14:47:25.358Z,100151.38
2022-10-21T14:49:55.650Z,100146.22
2022-10-21T14:52:37.131Z,100150.62
2022-10-21T14:55:10.044Z,100150.25
2022-10-21T14:57:47.557Z,100153.13
2022-10-21T15:00:30.026Z,100153.38
2022-10-21T15:02:59.297Z,100147.84
2022-10-21T15:05:31.488Z,100145.13
2022-10-21T15:08:20.739Z,100150.53
2022-10-21T15:10:57.450Z,100140.94
2022-10-21T15:13:26.561Z,100141.75
2022-10-21T15:15:56.199Z,100125.34
2022-10-21T15:18:26.538Z,100123.69
2022-10-21T15:21:03.295Z,100121.75
2022-10-21T15:23:39.241Z,100125.34
2022-10-21T15:26:18.674Z,100118.78
2022-10-21T15:28:46.217Z,100122.56
2022-10-21T15:31:19.414Z,100126.59
2022-10-21T15:33:49.065Z,100127.63
2022-10-21T15:36:16.696Z,100129.69
2022-10-21T15:38:46.968Z,100132.41
2022-10-21T15:41:17.429Z,100118.19
2022-10-21T15:43:57.312Z,100119.56
2022-10-21T15:46:29.369Z,100108.28
2022-10-21T15:48:57.394Z,100120.44
2022-10-21T15:51:25.052Z,100115.91
2022-10-21T15:53:52.425Z,100118.66
2022-10-21T15:56:20.133Z,100125.47
2022-10-21T15:58:47.516Z,100118.00
2022-10-21T16:01:16.713Z,100101.97
2022-10-21T16:03:46.031Z,100109.31
2022-10-21T16:06:16.127Z,100115.03
2022-10-21T16:08:43.844Z,100122.94
2022-10-21T16:11:25.610Z,100117.09
2022-10-21T16:14:03.059Z,100127.12
2022-10-21T16:16:30.519Z,100134.28
2022-10-21T16:18:57.854Z,100133.13
2022-10-21T16:21:26.222Z,100123.66
2022-10-21T16:23:56.037Z,100123.59
2022-10-21T16:26:25.626Z,100137.16
2022-10-21T16:28:54.958Z,100138.31
2022-10-21T16:31:22.800Z,100130.34
2022-10-21T16:33:50.368Z,100130.88
2022-10-21T16:36:22.338Z,100130.88
2022-10-21T16:38:51.110Z,100134.63
2022-10-21T16:41:21.646Z,100134.56
2022-10-21T16:43:49.401Z,100130.72
2022-10-21T16:46:32.550Z,100131.84
2022-10-21T16:49:05.123Z,100129.47
2022-10-21T16:51:34.125Z,100132.81
2022-10-21T16:54:01.725Z,100123.31
2022-10-21T16:56:29.440Z,100124.38
2022-10-21T16:58:57.230Z,100120.72
2022-10-21T17:01:25.388Z,100128.13
2022-10-21T17:03:55.012Z,100127.94
2022-10-21T17:06:24.734Z,100132.13
2022-10-21T17:08:54.151Z,100129.19
2022-10-21T17:11:22.990Z,100120.84
2022-10-21T17:13:50.590Z,100132.00
2022-10-21T17:16:20.553Z,100124.56
2022-10-21T17:18:48.304Z,100111.63
2022-10-21T17:21:24.721Z,100122.94
2022-10-21T17:23:52.782Z,100118.94
2022-10-21T17:26:21.019Z,100126.47
2022-10-21T17:28:49.072Z,100127.22
2022-10-21T17:31:23.420Z,100134.00
2022-10-21T17:33:52.094Z,100118.28
2022-10-21T17:36:20.328Z,100118.16
2022-10-21T17:38:47.913Z,100121.59
2022-10-21T17:41:17.967Z,100122.34
2022-10-21T17:43:45.876Z,100123.78
2022-10-21T17:46:21.133Z,100122.22
2022-10-21T17:48:53.242Z,100109.03
2022-10-21T17:51:22.248Z,100111.13
2022-10-21T17:53:54.260Z,100118.37
2022-10-21T17:56:22.174Z,100125.78
2022-10-21T17:58:51.459Z,100124.00
2022-10-21T18:01:20.338Z,100138.41
2022-10-21T18:03:48.537Z,100132.25
2022-10-21T18:06:16.475Z,100121.66
2022-10-21T18:08:44.562Z,100114.97
2022-10-21T18:11:15.037Z,100110.50
2022-10-21T18:13:43.656Z,100116.13
2022-10-21T18:16:16.335Z,100107.59
2022-10-21T18:18:45.558Z,100103.72
2022-10-21T18:21:16.669Z,100117.25
2022-10-21T18:23:47.171Z,100116.81
2022-10-21T18:26:19.719Z,100118.37
2022-10-21T18:28:52.434Z,100117.59
2022-10-21T18:31:22.008Z,100116.69
2022-10-21T18:33:51.039Z,100098.25
2022-10-21T18:36:18.939Z,100101.87
2022-10-21T18:38:46.646Z,100096.12
2022-10-21T18:41:20.915Z,100090.91
2022-10-21T18:43:54.451Z,100093.28
2022-10-21T18:46:24.323Z,100077.59
2022-10-21T18:48:54.267Z,100076.97
2022-10-21T18:51:23.877Z,100066.19
2022-10-21T18:53:52.983Z,100066.69
2022-10-21T18:56:22.948Z,100065.88
2022-10-21T18:58:51.274Z,100067.09
2022-10-21T19:01:20.558Z,100064.37
2022-10-21T19:03:51.173Z,100071.03
2022-10-21T19:06:19.337Z,100060.75
2022-10-21T19:08:47.576Z,100074.50
2022-10-21T19:11:15.492Z,100054.13
2022-10-21T19:13:43.641Z,100058.88
2022-10-21T19:16:11.459Z,100055.06
2022-10-21T19:18:39.061Z,100055.88
2022-10-21T19:21:06.973Z,100059.91
2022-10-21T19:23:34.406Z,100045.97
2022-10-21T19:26:06.832Z,100052.25
2022-10-21T19:28:35.563Z,100063.69
2022-10-21T19:31:04.073Z,100054.13
2022-10-21T19:33:31.972Z,100062.38
2022-10-21T19:36:00.870Z,100057.09
2022-10-21T19:38:43.138Z,100059.84
2022-10-21T19:41:14.863Z,100057.91
2022-10-21T19:43:44.011Z,100059.47
2022-10-21T19:46:17.448Z,100063.00
2022-10-21T19:48:48.084Z,100061.50
2022-10-21T19:51:18.400Z,100072.66
2022-10-21T19:53:46.509Z,100061.72
2022-10-21T19:56:15.541Z,100064.03
2022-10-21T19:58:49.440Z,100057.87
2022-10-21T20:01:20.269Z,100055.41
2022-10-21T20:06:35.962Z,100048.97
2022-10-21T20:09:09.649Z,100049.72
2022-10-21T20:11:38.007Z,100042.38
2022-10-21T20:14:06.142Z,100036.13
2022-10-21T20:16:39.166Z,100048.25
2022-10-21T20:19:06.963Z,100060.28
2022-10-21T20:21:35.581Z,100050.06
2022-10-21T20:24:03.542Z,100044.37
2022-10-21T20:26:31.708Z,100060.84
2022-10-21T20:29:00.758Z,100061.03
2022-10-21T20:31:28.782Z,100050.25
2022-10-21T20:33:57.193Z,100059.88
2022-10-21T20:36:25.572Z,100067.53
2022-10-21T20:38:54.453Z,100067.72
2022-10-21T20:41:24.088Z,100058.84
2022-10-21T20:43:53.014Z,100061.00
2022-10-21T20:46:22.343Z,100066.59
2022-10-21T20:48:51.694Z,100057.63
2022-10-21T20:51:21.212Z,100051.47
2022-10-21T20:53:50.940Z,100057.31
2022-10-21T20:56:19.369Z,100053.47
2022-10-21T20:58:47.394Z,100044.97
2022-10-21T21:01:20.525Z,100056.47
2022-10-21T21:03:59.186Z,100053.22
2022-10-21T21:06:27.310Z,100052.31
2022-10-21T21:09:15.077Z,100055.31
2022-10-21T21:11:42.486Z,100047.72
2022-10-21T21:14:10.123Z,100049.84
2022-10-21T21:16:37.568Z,100046.50
2022-10-21T21:19:07.120Z,100039.47
2022-10-21T21:21:36.150Z,100051.97
2022-10-21T21:24:03.893Z,100047.69
2022-10-21T21:26:34.375Z,100058.09
2022-10-21T21:29:02.268Z,100054.00
2022-10-21T21:31:31.004Z,100049.03
2022-10-21T21:33:58.675Z,100049.06
2022-10-21T21:36:26.377Z,100036.25
2022-10-21T21:38:54.197Z,100032.50
2022-10-21T21:41:23.260Z,100031.66
2022-10-21T21:43:52.535Z,100038.72
2022-10-21T21:46:24.260Z,100040.63
2022-10-21T21:49:04.719Z,100040.53
2022-10-21T21:51:34.699Z,100028.19
2022-10-21T21:54:04.026Z,100014.66
2022-10-21T21:56:31.491Z,100026.78
2022-10-21T21:58:58.887Z,100029.03
2022-10-21T22:01:28.575Z,100018.66
2022-10-21T22:03:57.171Z,100015.97
2022-10-21T22:09:00.571Z,100023.47
2022-10-21T22:11:31.292Z,100025.22
2022-10-21T22:13:59.283Z,100024.13
2022-10-21T22:16:30.302Z,100029.72
2022-10-21T22:18:59.876Z,100044.91
2022-10-21T22:21:28.345Z,100039.31
2022-10-21T22:23:55.750Z,100032.44
2022-10-21T22:26:23.544Z,100034.81
2022-10-21T22:28:51.177Z,100035.12
2022-10-21T22:31:19.440Z,100037.56
2022-10-21T22:33:46.908Z,100039.56
2022-10-21T22:36:16.467Z,100035.84
2022-10-21T22:38:44.703Z,100030.97
2022-10-21T22:41:12.888Z,100027.94
2022-10-21T22:43:42.760Z,100022.69
2022-10-21T22:46:22.049Z,100024.81
2022-10-21T22:48:56.903Z,100022.22
2022-10-21T22:51:24.228Z,100020.47
2022-10-21T22:53:55.322Z,100026.31
2022-10-21T22:56:25.695Z,100019.38
2022-10-21T22:58:53.033Z,100020.16
2022-10-21T23:01:20.461Z,100018.12
2022-10-21T23:03:48.097Z,100018.19
2022-10-21T23:06:15.744Z,100009.81
2022-10-21T23:08:43.161Z,100015.12
2022-10-21T23:11:10.798Z,100021.09
2022-10-21T23:13:39.602Z,100008.44
2022-10-21T23:16:11.528Z,100008.03
2022-10-21T23:18:38.867Z,100009.44
2022-10-21T23:21:06.498Z,100026.56
2022-10-21T23:23:34.214Z,100017.94
2022-10-21T23:26:03.007Z,100014.63
2022-10-21T23:28:30.720Z,100013.72
2022-10-21T23:30:59.072Z,99995.25
2022-10-21T23:33:26.638Z,99999.78
2022-10-21T23:35:54.096Z,99995.16
2022-10-21T23:38:21.765Z,100001.91
2022-10-21T23:40:49.163Z,99995.03
2022-10-21T23:43:16.526Z,100003.13
2022-10-21T23:45:44.227Z,100008.81
2022-10-21T23:48:11.610Z,100013.53
2022-10-21T23:50:42.386Z,100018.66
2022-10-21T23:53:11.738Z,100022.22
2022-10-21T23:55:39.089Z,100021.72
2022-10-21T23:58:06.450Z,100014.84
